Time;durP1;ratioP1;P1;durP2;ratioP2;P2;SDS_P1;SDS_P2;PMS_P1;PMS_P2;Temp;Humidity;BMP_temperature;BMP_pressure;BME280_temperature;BME280_humidity;BME280_pressure;Samples;Min_cycle;Max_cycle;Signal;HPM_P1;HPM_P2
2022/04/09 00:00:46;;;;;;;;;3.33;3.33;;;;;7.70;64.82;100619.69;5017162;28;45481;-65
2022/04/09 00:03:11;;;;;;;;;4.00;4.00;;;;;7.72;65.04;100625.69;5018780;28;45387;-65
2022/04/09 00:05:37;;;;;;;;;5.00;5.00;;;;;7.72;64.85;100631.00;5018150;28;45525;-65
2022/04/09 00:08:02;;;;;;;;;3.00;3.00;;;;;6.94;64.47;100492.88;5018206;28;45171;-65
2022/04/09 00:10:28;;;;;;;;;6.00;6.00;;;;;7.80;64.55;100634.66;5018338;28;45493;-65
2022/04/09 00:12:53;;;;;;;;;4.00;4.00;;;;;7.73;64.44;100611.50;5018506;28;45475;-65
2022/04/09 00:15:19;;;;;;;;;10.00;5.67;;;;;7.76;64.18;100624.47;5017879;28;45957;-65
2022/04/09 00:17:46;;;;;;;;;8.67;5.00;;;;;7.77;64.07;100620.84;5017625;28;45222;-65
2022/04/09 00:20:14;;;;;;;;;6.00;6.00;;;;;7.73;63.94;100609.69;5018182;28;45588;-66
2022/04/09 00:22:40;;;;;;;;;4.00;3.33;;;;;7.88;64.39;100628.75;5017728;28;45439;-65
2022/04/09 00:25:08;;;;;;;;;3.67;3.67;;;;;7.88;64.30;100620.81;5017722;28;47940;-65
2022/04/09 00:27:34;;;;;;;;;3.00;3.00;;;;;8.01;63.96;100644.41;5017659;28;45510;-66
2022/04/09 00:30:00;;;;;;;;;5.00;5.00;;;;;8.01;64.32;100650.56;5017780;28;46504;-64
2022/04/09 00:32:25;;;;;;;;;5.33;5.33;;;;;8.03;64.37;100653.09;5000305;28;45249;-64
2022/04/09 00:34:50;;;;;;;;;6.00;5.00;;;;;8.01;63.45;100647.06;5016202;28;48307;-66
2022/04/09 00:37:16;;;;;;;;;5.00;5.00;;;;;8.01;63.87;100644.41;5015196;28;45438;-64
2022/04/09 00:39:41;;;;;;;;;4.33;4.33;;;;;8.06;64.14;100647.53;5017987;28;45715;-64
2022/04/09 00:42:14;;;;;;;;;4.33;3.33;;;;;8.02;63.48;100644.31;5017465;28;45401;-66
2022/04/09 00:44:40;;;;;;;;;7.33;6.33;;;;;8.09;63.30;100658.69;5017408;28;46857;-65
2022/04/09 00:47:06;;;;;;;;;5.00;4.00;;;;;7.58;63.87;100560.69;5017597;28;45477;-64
2022/04/09 00:49:32;;;;;;;;;4.00;4.00;;;;;8.02;63.85;100630.22;5017474;28;45591;-65
2022/04/09 00:52:02;;;;;;;;;6.67;6.00;;;;;8.08;63.94;100633.19;5017817;28;45281;-63
2022/04/09 00:54:30;;;;;;;;;5.00;4.00;;;;;8.15;63.30;100647.56;5016269;28;45482;-65
2022/04/09 00:57:10;;;;;;;;;6.00;6.00;;;;;8.09;63.08;100647.25;5017453;28;45445;-65
2022/04/09 00:59:37;;;;;;;;;5.33;5.33;;;;;8.24;63.15;100662.69;5017443;28;45272;-65
2022/04/09 01:02:03;;;;;;;;;7.67;6.33;;;;;8.28;63.03;100662.44;5017676;28;45297;-65
2022/04/09 01:04:33;;;;;;;;;6.00;5.00;;;;;8.26;63.60;100654.63;5017054;28;46142;-64
2022/04/09 01:07:02;;;;;;;;;5.00;5.00;;;;;8.37;63.15;100666.94;5017311;28;45393;-65
2022/04/09 01:09:27;;;;;;;;;6.67;6.33;;;;;8.43;62.98;100674.41;5017473;28;45249;-64
2022/04/09 01:11:55;;;;;;;;;5.00;4.00;;;;;8.42;62.71;100664.78;5016812;28;45526;-65
2022/04/09 01:14:20;;;;;;;;;6.00;5.00;;;;;8.30;62.61;100639.28;5017430;28;46205;-65
2022/04/09 01:16:46;;;;;;;;;5.00;5.00;;;;;8.49;62.74;100682.66;5017463;28;45939;-64
2022/04/09 01:19:12;;;;;;;;;4.00;4.00;;;;;8.49;62.34;100680.00;5017317;28;45278;-65
2022/04/09 01:21:39;;;;;;;;;6.00;5.00;;;;;8.52;62.27;100670.94;5017479;28;45420;-66
2022/04/09 01:24:05;;;;;;;;;6.00;6.00;;;;;8.53;61.55;100675.25;5016833;28;46349;-65
2022/04/09 01:26:30;;;;;;;;;4.67;4.67;;;;;8.49;60.90;100665.91;5000649;28;45448;-65
2022/04/09 01:28:56;;;;;;;;;3.00;3.00;;;;;8.50;60.82;100663.13;4997500;28;45214;-65
2022/04/09 01:31:21;;;;;;;;;3.67;2.67;;;;;8.23;60.52;100626.59;4997664;28;45508;-66
2022/04/09 01:33:47;;;;;;;;;2.00;2.00;;;;;8.57;60.16;100705.81;4997090;28;45951;-64
2022/04/09 01:36:14;;;;;;;;;2.00;2.00;;;;;8.37;60.18;100664.31;4996814;28;45467;-65
2022/04/09 01:38:40;;;;;;;;;2.00;2.00;;;;;8.16;59.88;100649.25;4995930;28;45224;-65
2022/04/09 01:41:05;;;;;;;;;2.00;2.00;;;;;8.52;60.44;100713.34;5005632;28;45650;-65
2022/04/09 01:43:31;;;;;;;;;3.00;1.00;;;;;8.43;61.59;100695.59;5016551;28;46412;-65
2022/04/09 01:45:56;;;;;;;;;1.67;1.67;;;;;8.50;61.10;100707.34;5016887;28;45336;-65
2022/04/09 01:48:21;;;;;;;;;2.00;2.00;;;;;8.58;61.39;100726.03;5019394;28;45218;-65
2022/04/09 01:50:47;;;;;;;;;2.00;2.00;;;;;8.55;61.33;100718.38;5020831;28;45471;-65
2022/04/09 01:53:13;;;;;;;;;2.33;2.33;;;;;8.62;61.96;100732.78;5020262;28;47600;-64
2022/04/09 01:55:39;;;;;;;;;3.00;3.00;;;;;8.18;61.64;100657.91;5019201;28;45278;-65
2022/04/09 01:58:04;;;;;;;;;4.00;3.00;;;;;8.58;61.77;100744.59;5018912;28;45260;-65
2022/04/09 02:00:30;;;;;;;;;3.00;3.00;;;;;8.31;61.76;100699.25;5020455;28;45364;-64
2022/04/09 02:02:56;;;;;;;;;1.67;1.67;;;;;8.53;61.55;100744.16;5020055;28;45304;-65
2022/04/09 02:05:22;;;;;;;;;2.00;2.00;;;;;8.53;62.06;100747.66;5020179;28;45391;-66
2022/04/09 02:07:48;;;;;;;;;4.00;3.00;;;;;8.57;61.79;100748.22;5020642;28;45352;-65
2022/04/09 02:10:17;;;;;;;;;4.00;4.00;;;;;8.57;61.61;100734.97;5018899;28;45530;-65
2022/04/09 02:12:43;;;;;;;;;3.00;2.00;;;;;8.56;61.25;100740.41;5018672;28;47668;-64
2022/04/09 02:15:11;;;;;;;;;3.00;3.00;;;;;8.60;61.34;100745.31;5019772;28;45315;-65
2022/04/09 02:17:40;;;;;;;;;3.00;2.00;;;;;8.26;61.69;100680.25;5020137;28;45543;-65
2022/04/09 02:20:08;;;;;;;;;7.00;4.33;;;;;8.57;61.87;100737.63;5018896;28;45287;-66
2022/04/09 02:22:44;;;;;;;;;3.00;3.00;;;;;8.13;61.51;100665.41;5019743;28;47648;-65
2022/04/09 02:25:12;;;;;;;;;4.00;4.00;;;;;8.17;61.57;100688.00;5019703;28;45336;-64
2022/04/09 02:27:38;;;;;;;;;4.33;4.00;;;;;8.56;61.41;100758.94;5020137;28;45544;-64
2022/04/09 02:30:06;;;;;;;;;4.00;4.00;;;;;8.09;61.41;100677.22;5019969;28;45639;-65
2022/04/09 02:32:43;;;;;;;;;4.00;4.00;;;;;8.56;61.98;100756.31;5019697;28;46542;-65
2022/04/09 02:35:08;;;;;;;;;4.33;3.33;;;;;8.23;61.45;100706.03;5018375;28;45425;-65
2022/04/09 02:37:34;;;;;;;;;4.67;4.67;;;;;8.60;61.97;100758.56;5001630;28;45268;-65
2022/04/09 02:40:01;;;;;;;;;5.67;4.67;;;;;8.49;61.46;100746.25;5019872;28;45378;-65
2022/04/09 02:42:26;;;;;;;;;5.00;4.00;;;;;8.61;61.93;100773.50;5019563;28;45868;-65
2022/04/09 02:44:51;;;;;;;;;14.33;14.33;;;;;8.61;61.50;100770.88;5018059;28;45468;-65
2022/04/09 02:47:16;;;;;;;;;5.67;5.00;;;;;8.64;61.24;100778.56;5019542;28;45467;-64
2022/04/09 02:49:42;;;;;;;;;4.00;4.00;;;;;8.61;61.57;100780.59;5017979;28;47860;-65
2022/04/09 02:52:07;;;;;;;;;4.33;3.00;;;;;8.50;62.21;100757.69;5019449;28;46576;-65
2022/04/09 02:54:32;;;;;;;;;4.67;4.67;;;;;8.58;62.36;100779.03;5019444;28;45353;-65
2022/04/09 02:56:58;;;;;;;;;7.00;6.00;;;;;8.56;62.58;100783.63;5019388;28;45490;-64
2022/04/09 02:59:23;;;;;;;;;7.33;6.00;;;;;8.58;62.37;100786.16;5018805;28;45257;-65
2022/04/09 03:01:49;;;;;;;;;7.00;6.67;;;;;8.50;62.47;100774.41;5019236;28;45385;-65
2022/04/09 03:04:14;;;;;;;;;5.33;5.33;;;;;8.41;62.94;100755.78;5019243;28;45474;-64
2022/04/09 03:06:40;;;;;;;;;6.33;6.00;;;;;8.61;62.96;100785.91;5019405;28;45354;-65
2022/04/09 03:09:06;;;;;;;;;6.00;6.00;;;;;8.38;63.31;100764.00;5019393;28;45488;-65
2022/04/09 03:11:31;;;;;;;;;3.00;3.00;;;;;8.57;62.80;100817.13;5017566;28;47008;-65
2022/04/09 03:13:56;;;;;;;;;6.00;6.00;;;;;8.57;63.38;100824.22;5019466;28;45269;-65
2022/04/09 03:16:22;;;;;;;;;7.33;6.33;;;;;8.56;63.85;100830.50;5019427;28;45432;-65
2022/04/09 03:18:48;;;;;;;;;6.67;5.00;;;;;8.08;63.43;100751.50;5019398;28;45293;-65
2022/04/09 03:21:14;;;;;;;;;5.00;5.00;;;;;8.57;64.37;100833.03;5018579;28;45785;-65
2022/04/09 03:23:39;;;;;;;;;6.00;6.00;;;;;8.57;64.60;100833.03;5019005;28;45352;-65
2022/04/09 03:26:05;;;;;;;;;5.00;5.00;;;;;8.48;63.78;100823.22;5019039;28;45658;-65
2022/04/09 03:28:33;;;;;;;;;3.00;3.00;;;;;8.44;63.99;100816.50;5017758;28;45633;-65
2022/04/09 03:30:59;;;;;;;;;3.33;3.33;;;;;8.44;62.95;100816.50;5018783;28;45491;-65
2022/04/09 03:33:25;;;;;;;;;4.00;4.00;;;;;8.30;63.25;100801.72;5018875;28;45249;-65
2022/04/09 03:35:51;;;;;;;;;5.00;4.67;;;;;8.39;63.38;100818.66;5018298;28;45520;-65
2022/04/09 03:38:17;;;;;;;;;4.00;4.00;;;;;7.95;62.58;100743.72;5018898;28;45475;-65
2022/04/09 03:40:42;;;;;;;;;5.33;4.33;;;;;8.34;62.79;100823.50;5017255;28;46554;-64
2022/04/09 03:43:08;;;;;;;;;3.67;2.33;;;;;8.44;62.60;100845.63;5018882;28;45715;-65
2022/04/09 03:45:33;;;;;;;;;3.00;3.00;;;;;8.11;62.37;100788.31;5018816;28;45506;-63
2022/04/09 03:47:59;;;;;;;;;3.67;3.67;;;;;8.41;62.54;100854.69;5018969;28;45395;-65
2022/04/09 03:50:24;;;;;;;;;3.67;3.67;;;;;8.46;62.68;100859.59;5018413;28;47455;-65
2022/04/09 03:52:50;;;;;;;;;3.00;3.00;;;;;8.42;62.40;100852.88;5017216;28;45422;-65
2022/04/09 03:55:15;;;;;;;;;3.00;3.00;;;;;8.26;62.79;100839.19;5018493;28;45254;-65
2022/04/09 03:57:41;;;;;;;;;3.00;3.00;;;;;8.26;62.22;100855.06;5018751;28;45175;-65
2022/04/09 04:00:08;;;;;;;;;3.00;3.00;;;;;8.15;61.91;100864.72;5018358;28;47431;-64
2022/04/09 04:02:33;;;;;;;;;3.00;3.00;;;;;7.96;62.27;100831.94;5016982;28;45361;-63
2022/04/09 04:05:02;;;;;;;;;3.00;3.00;;;;;8.15;61.55;100851.47;5017049;28;45427;-65
2022/04/09 04:07:29;;;;;;;;;3.33;3.33;;;;;7.96;62.18;100822.19;5018374;28;45454;-65
2022/04/09 04:09:54;;;;;;;;;1.00;1.00;;;;;8.10;61.10;100856.31;5016662;28;47837;-64
2022/04/09 04:12:20;;;;;;;;;5.00;5.00;;;;;8.04;62.01;100854.19;5017949;28;45623;-64
2022/04/09 04:14:45;;;;;;;;;1.67;1.67;;;;;8.09;61.60;100857.28;5018533;28;45376;-65
2022/04/09 04:17:11;;;;;;;;;3.00;3.00;;;;;8.13;62.14;100853.41;5018747;28;45331;-64
2022/04/09 04:19:37;;;;;;;;;2.67;2.33;;;;;8.07;62.47;100864.53;5016629;28;47681;-65
2022/04/09 04:22:03;;;;;;;;;4.00;4.00;;;;;8.07;61.25;100848.63;5017068;28;45475;-64
2022/04/09 04:24:28;;;;;;;;;3.33;3.33;;;;;7.99;61.54;100831.66;5018125;28;45420;-64
2022/04/09 04:26:54;;;;;;;;;2.00;2.00;;;;;8.01;61.15;100835.03;5017326;28;45471;-65
2022/04/09 04:29:19;;;;;;;;;3.33;3.33;;;;;8.05;61.68;100832.03;5017567;28;46055;-65
2022/04/09 04:31:44;;;;;;;;;5.67;5.67;;;;;8.02;61.56;100834.94;5017838;28;45365;-65
2022/04/09 04:34:10;;;;;;;;;4.00;4.00;;;;;8.18;60.82;100863.63;5018226;28;45511;-63
2022/04/09 04:36:35;;;;;;;;;3.00;2.67;;;;;8.20;61.06;100859.03;5017846;28;45151;-65
2022/04/09 04:39:00;;;;;;;;;4.00;4.00;;;;;8.21;61.36;100858.09;5017827;28;46634;-65
2022/04/09 04:41:26;;;;;;;;;4.00;4.00;;;;;8.21;61.39;100848.34;5017768;28;45405;-65
2022/04/09 04:43:52;;;;;;;;;3.00;3.00;;;;;8.20;62.00;100865.19;5017612;28;45305;-65
2022/04/09 04:46:18;;;;;;;;;4.33;4.00;;;;;8.24;61.06;100860.50;5017675;28;45316;-65
2022/04/09 04:48:47;;;;;;;;;4.00;4.00;;;;;8.21;61.54;100844.84;5017414;28;45922;-67
2022/04/09 04:51:12;;;;;;;;;4.33;4.33;;;;;8.19;61.75;100850.25;5017403;28;45246;-65
2022/04/09 04:53:38;;;;;;;;;2.33;2.33;;;;;8.21;61.63;100855.47;5016442;28;45513;-65
2022/04/09 04:56:03;;;;;;;;;4.00;4.00;;;;;8.11;61.95;100836.81;5017542;28;45209;-65
2022/04/09 04:58:29;;;;;;;;;4.00;4.00;;;;;7.99;61.92;100819.28;5017305;28;46647;-66
2022/04/09 05:00:54;;;;;;;;;6.67;5.67;;;;;8.32;61.71;100870.44;5017719;28;45332;-65
2022/04/09 05:03:20;;;;;;;;;8.67;6.33;;;;;8.31;61.90;100868.78;5016177;28;45377;-66
2022/04/09 05:05:45;;;;;;;;;5.67;5.67;;;;;8.14;61.87;100847.16;5013661;28;45448;-65
2022/04/09 05:08:11;;;;;;;;;5.00;5.00;;;;;8.36;61.14;100882.50;4999558;28;47240;-65
2022/04/09 05:10:36;;;;;;;;;5.33;5.00;;;;;8.33;61.68;100874.78;5017367;28;45498;-64
2022/04/09 05:13:02;;;;;;;;;6.00;6.00;;;;;8.12;61.91;100848.25;5017574;28;45210;-64
2022/04/09 05:15:27;;;;;;;;;7.00;7.00;;;;;8.41;62.25;100883.81;5017315;28;45529;-67
2022/04/09 05:17:52;;;;;;;;;9.00;7.67;;;;;8.37;62.18;100877.06;5015633;28;45557;-65
2022/04/09 05:20:18;;;;;;;;;15.33;13.33;;;;;8.45;62.28;100893.19;5015936;28;45427;-64
2022/04/09 05:22:46;;;;;;;;;11.00;7.33;;;;;8.40;63.10;100883.91;5016891;28;45491;-65
2022/04/09 05:25:14;;;;;;;;;9.00;7.00;;;;;8.46;62.86;100894.03;5011928;28;45563;-65
2022/04/09 05:27:40;;;;;;;;;10.67;7.67;;;;;8.51;62.67;100891.84;5015428;28;46422;-64
2022/04/09 05:30:07;;;;;;;;;8.67;8.67;;;;;8.46;62.54;100888.72;5016634;28;45311;-64
2022/04/09 05:32:35;;;;;;;;;8.00;8.00;;;;;8.44;62.35;100874.78;5015870;28;45488;-65
2022/04/09 05:35:01;;;;;;;;;8.67;8.00;;;;;8.27;62.70;100873.47;5015787;28;45572;-65
2022/04/09 05:37:28;;;;;;;;;8.67;8.33;;;;;8.10;62.57;100851.03;5016349;28;46380;-64
2022/04/09 05:39:55;;;;;;;;;9.33;7.67;;;;;8.32;62.59;100886.34;5016774;28;45413;-65
2022/04/09 05:42:22;;;;;;;;;7.67;7.67;;;;;8.30;62.84;100889.13;5016706;28;45217;-66
2022/04/09 05:44:48;;;;;;;;;12.00;9.33;;;;;8.32;62.63;100894.28;5015710;28;45298;-66
2022/04/09 05:47:13;;;;;;;;;14.00;11.00;;;;;8.45;63.27;100905.59;5016349;28;47634;-65
2022/04/09 05:49:38;;;;;;;;;11.33;10.00;;;;;8.48;63.55;100900.88;5014607;28;46459;-65
2022/04/09 05:52:04;;;;;;;;;10.00;9.00;;;;;8.51;63.24;100910.38;5015682;28;45480;-65
2022/04/09 05:54:31;;;;;;;;;12.67;12.00;;;;;8.47;63.00;100899.22;5016781;28;45464;-65
2022/04/09 05:56:58;;;;;;;;;12.67;11.67;;;;;8.50;62.75;100911.34;5016233;28;46541;-63
2022/04/09 05:59:26;;;;;;;;;13.00;11.67;;;;;8.11;62.70;100849.22;5016290;28;45253;-64
2022/04/09 06:01:51;;;;;;;;;11.00;10.33;;;;;8.57;62.72;100928.41;5016667;28;45418;-65
2022/04/09 06:04:19;;;;;;;;;11.33;9.67;;;;;8.53;63.48;100911.94;5016608;28;45392;-65
2022/04/09 06:06:44;;;;;;;;;10.67;9.67;;;;;8.41;62.83;100890.91;5016320;28;46429;-65
2022/04/09 06:09:10;;;;;;;;;8.67;8.00;;;;;8.62;63.12;100928.91;5016274;28;45276;-64
2022/04/09 06:11:35;;;;;;;;;12.67;12.33;;;;;8.63;63.18;100924.44;5014968;28;45281;-64
2022/04/09 06:14:00;;;;;;;;;13.33;13.33;;;;;8.66;62.84;100924.19;5016515;28;45361;-65
2022/04/09 06:16:26;;;;;;;;;15.00;12.67;;;;;8.67;62.93;100928.50;5016083;28;46065;-66
2022/04/09 06:18:51;;;;;;;;;8.33;8.33;;;;;8.68;63.01;100925.75;5015394;28;45403;-66
2022/04/09 06:21:16;;;;;;;;;13.00;9.33;;;;;8.59;62.65;100917.69;5013421;28;58401;-64
2022/04/09 06:23:42;;;;;;;;;14.33;12.33;;;;;8.62;63.05;100931.56;5015760;28;53559;-64
2022/04/09 06:26:07;;;;;;;;;13.00;13.00;;;;;8.77;63.36;100946.16;5015567;28;47698;-64
2022/04/09 06:28:34;;;;;;;;;10.33;9.00;;;;;8.78;63.45;100950.50;5016051;28;45253;-65
2022/04/09 06:30:59;;;;;;;;;15.00;15.00;;;;;8.57;62.98;100923.13;5015398;28;45336;-65
2022/04/09 06:33:25;;;;;;;;;14.00;13.00;;;;;8.65;63.02;100941.91;5015936;28;45612;-67
2022/04/09 06:35:50;;;;;;;;;14.00;14.00;;;;;8.66;62.86;100942.75;5017321;28;46419;-68
2022/04/09 06:38:15;;;;;;;;;13.00;12.00;;;;;8.82;63.14;100965.19;5018619;28;45490;-66
2022/04/09 06:40:41;;;;;;;;;10.33;9.00;;;;;8.84;63.05;100968.56;5019628;28;45194;-66
2022/04/09 06:43:06;;;;;;;;;9.33;9.33;;;;;8.88;63.13;100969.16;5019066;28;45419;-67
2022/04/09 06:45:33;;;;;;;;;11.33;11.33;;;;;8.90;63.09;100966.38;5018786;28;45629;-64
2022/04/09 06:47:59;;;;;;;;;13.67;10.67;;;;;8.86;63.10;100964.94;5019013;28;45325;-65
2022/04/09 06:50:24;;;;;;;;;10.00;9.00;;;;;8.50;62.89;100911.34;5019156;28;45329;-65
2022/04/09 06:52:49;;;;;;;;;11.33;11.33;;;;;8.94;63.07;100983.69;5017853;28;45436;-64
2022/04/09 06:55:14;;;;;;;;;12.00;10.00;;;;;8.93;63.45;100976.72;5015484;28;65131;-65
2022/04/09 06:57:41;;;;;;;;;8.67;8.67;;;;;8.99;62.87;100990.28;5019026;28;45318;-66
2022/04/09 07:00:12;;;;;;;;;9.00;9.00;;;;;9.03;62.94;100988.25;5019249;28;45444;-64
2022/04/09 07:02:38;;;;;;;;;8.00;8.00;;;;;8.99;63.10;100990.28;5019172;28;45382;-64
2022/04/09 07:05:05;;;;;;;;;8.33;7.33;;;;;9.03;62.90;100999.69;5017522;28;46974;-64
2022/04/09 07:07:30;;;;;;;;;6.67;5.67;;;;;9.07;62.42;101001.13;5018892;28;45393;-65
2022/04/09 07:10:09;;;;;;;;;7.67;7.67;;;;;9.13;62.44;100999.75;5019013;28;45857;-65
2022/04/09 07:12:35;;;;;;;;;9.67;7.67;;;;;9.13;63.03;100990.00;5017670;28;45258;-66
2022/04/09 07:15:02;;;;;;;;;8.33;7.00;;;;;9.19;62.88;101004.53;5018756;28;45876;-65
2022/04/09 07:17:29;;;;;;;;;9.00;9.00;;;;;9.26;62.34;101016.34;5018385;28;45290;-66
2022/04/09 07:20:04;;;;;;;;;6.33;6.00;;;;;9.29;62.99;101005.47;5018823;28;45394;-66
2022/04/09 07:22:30;;;;;;;;;7.00;7.00;;;;;9.02;62.30;100966.19;5018903;28;45427;-64
2022/04/09 07:24:56;;;;;;;;;7.67;6.00;;;;;9.30;62.01;101008.97;5017898;28;45923;-67
2022/04/09 07:27:21;;;;;;;;;6.00;6.00;;;;;9.24;61.88;101010.31;5017939;28;45435;-66
2022/04/09 07:29:47;;;;;;;;;6.00;6.00;;;;;9.35;62.08;101012.91;5017177;28;45342;-67
2022/04/09 07:32:12;;;;;;;;;6.33;5.33;;;;;9.30;62.18;101006.31;5018866;28;45503;-65
2022/04/09 07:34:38;;;;;;;;;8.00;8.00;;;;;9.24;62.16;100985.59;5018635;28;46603;-66
2022/04/09 07:37:04;;;;;;;;;10.00;7.33;;;;;8.95;61.44;100959.69;5033622;28;45551;-65
2022/04/09 07:39:30;;;;;;;;;7.33;7.33;;;;;9.38;61.17;101031.22;5018552;28;45427;-65
2022/04/09 07:41:55;;;;;;;;;6.67;6.67;;;;;9.39;61.14;101032.88;5017272;28;45604;-66
2022/04/09 07:44:22;;;;;;;;;4.00;4.00;;;;;9.37;61.41;101005.66;5018416;28;45757;-66
2022/04/09 07:46:48;;;;;;;;;6.00;6.00;;;;;9.40;61.58;101017.81;5017846;28;45324;-67
2022/04/09 07:49:13;;;;;;;;;10.67;8.00;;;;;9.51;61.36;101014.25;5015915;28;45496;-67
2022/04/09 07:51:39;;;;;;;;;8.00;7.00;;;;;9.65;60.77;101029.84;5033651;28;45400;-68
2022/04/09 07:54:05;;;;;;;;;13.67;12.00;;;;;9.45;60.77;100997.06;5016094;28;48768;-69
2022/04/09 07:56:33;;;;;;;;;7.00;7.00;;;;;9.58;60.79;101018.06;5018110;28;45716;-66
2022/04/09 07:58:58;;;;;;;;;6.67;6.00;;;;;9.76;60.80;101043.88;5017068;28;45408;-69
2022/04/09 08:01:24;;;;;;;;;10.67;8.67;;;;;9.54;60.86;100992.75;5016578;28;45392;-66
2022/04/09 08:03:49;;;;;;;;;7.33;5.00;;;;;9.83;60.63;101036.25;5017608;28;45951;-68
2022/04/09 08:06:15;;;;;;;;;12.00;9.00;;;;;9.69;60.52;101031.28;5017580;28;45200;-68
2022/04/09 08:08:44;;;;;;;;;7.33;6.67;;;;;9.74;60.49;101026.41;5016222;28;46531;-67
2022/04/09 08:11:10;;;;;;;;;9.33;8.67;;;;;9.87;59.97;101048.28;5018070;28;45413;-66
2022/04/09 08:13:35;;;;;;;;;9.33;9.33;;;;;9.85;60.61;101044.94;5017345;28;47419;-66
2022/04/09 08:16:01;;;;;;;;;9.33;9.00;;;;;9.82;60.26;101039.88;5016997;28;45501;-68
2022/04/09 08:18:27;;;;;;;;;12.33;8.00;;;;;9.88;60.84;101049.97;5016580;28;45516;-65
2022/04/09 08:20:54;;;;;;;;;9.00;8.00;;;;;9.44;59.68;100977.63;5018066;28;45376;-66
2022/04/09 08:23:20;;;;;;;;;9.00;9.00;;;;;9.92;60.00;101047.88;5017822;28;45724;-65
2022/04/09 08:25:45;;;;;;;;;8.67;7.67;;;;;9.55;59.90;100999.75;5016925;28;45464;-66
2022/04/09 08:28:10;;;;;;;;;7.67;7.00;;;;;9.86;59.16;101051.06;5017729;28;45279;-67
2022/04/09 08:30:36;;;;;;;;;8.33;8.00;;;;;9.91;59.34;101065.63;5016604;28;45416;-66
2022/04/09 08:33:07;;;;;;;;;7.67;7.00;;;;;9.44;58.62;100996.22;5017349;28;45711;-66
2022/04/09 08:35:32;;;;;;;;;7.67;6.33;;;;;9.89;58.57;101072.06;5017367;28;45493;-66
2022/04/09 08:37:58;;;;;;;;;5.00;5.00;;;;;9.87;57.84;101074.84;5016057;28;45424;-66
2022/04/09 08:40:26;;;;;;;;;6.00;5.67;;;;;9.88;57.64;101068.56;5017709;28;45482;-66
2022/04/09 08:42:54;;;;;;;;;7.00;7.00;;;;;10.04;56.49;101082.22;5016956;28;46421;-67
2022/04/09 08:45:19;;;;;;;;;10.00;6.00;;;;;10.16;56.63;101084.75;5016081;28;46211;-66
2022/04/09 08:47:50;;;;;;;;;7.67;7.67;;;;;10.20;56.25;101080.84;5017608;28;45431;-64
2022/04/09 08:50:17;;;;;;;;;8.00;8.00;;;;;10.13;56.64;101074.41;5017459;28;45278;-68
2022/04/09 08:52:44;;;;;;;;;6.00;6.00;;;;;10.14;56.53;101081.41;5016858;28;46707;-66
2022/04/09 08:55:13;;;;;;;;;7.67;7.00;;;;;10.09;56.46;101084.47;5016269;28;45644;-67
2022/04/09 08:57:40;;;;;;;;;8.67;7.33;;;;;10.23;56.64;101099.25;5016064;28;45494;-67
2022/04/09 09:00:10;;;;;;;;;5.67;5.00;;;;;10.16;55.68;101106.84;5032498;28;45499;-66
2022/04/09 09:02:37;;;;;;;;;6.67;6.67;;;;;10.21;56.05;101114.44;5015772;28;47873;-66
2022/04/09 09:05:03;;;;;;;;;6.33;6.33;;;;;10.21;56.14;101098.50;5015529;28;45324;-66
2022/04/09 09:07:29;;;;;;;;;6.00;6.00;;;;;10.18;55.28;101099.59;5017104;28;45253;-68
2022/04/09 09:10:16;;;;;;;;;5.00;5.00;;;;;10.22;55.17;101106.38;5012088;28;45354;-69
2022/04/09 09:12:42;;;;;;;;;6.33;6.33;;;;;10.21;55.82;101099.38;5015386;28;46210;-67
2022/04/09 09:15:08;;;;;;;;;8.00;8.00;;;;;10.29;55.81;101096.88;5017000;28;45207;-68
2022/04/09 09:17:34;;;;;;;;;7.67;7.67;;;;;10.16;55.53;101085.59;5022002;28;45424;-69
2022/04/09 09:20:00;;;;;;;;;5.00;5.00;;;;;10.15;55.14;101083.06;5046379;28;45568;-67
2022/04/09 09:22:39;;;;;;;;;8.67;7.67;;;;;10.41;55.47;101124.22;5018148;28;46267;-68
2022/04/09 09:25:09;;;;;;;;;7.33;7.00;;;;;10.63;55.37;101128.50;5018885;28;45467;-67
2022/04/09 09:27:36;;;;;;;;;6.67;6.67;;;;;10.75;53.61;101134.53;5015637;28;45490;-69
2022/04/09 09:30:05;;;;;;;;;6.67;6.67;;;;;10.81;53.46;101136.66;5016114;28;45565;-68
2022/04/09 09:32:31;;;;;;;;;4.67;4.67;;;;;10.65;52.89;101094.63;5016001;28;45368;-68
2022/04/09 09:35:06;;;;;;;;;5.00;5.00;;;;;10.98;53.06;101133.34;5008056;28;45399;-68
2022/04/09 09:37:31;;;;;;;;;8.33;7.33;;;;;11.01;53.29;101133.06;5015104;28;45302;-66
2022/04/09 09:39:59;;;;;;;;;9.00;7.33;;;;;11.12;52.93;101143.59;5016877;28;45214;-68
2022/04/09 09:42:26;;;;;;;;;6.67;6.67;;;;;11.20;52.65;101153.53;5010843;28;46287;-69
2022/04/09 09:45:00;;;;;;;;;12.00;9.00;;;;;11.22;52.34;101154.28;5015607;28;45482;-69
2022/04/09 09:47:25;;;;;;;;;7.33;7.33;;;;;11.06;50.93;101157.47;5016504;28;45359;-69
2022/04/09 09:50:17;;;;;;;;;7.00;7.00;;;;;11.06;51.28;101144.16;5016539;28;45420;-67
2022/04/09 09:52:43;;;;;;;;;9.67;9.00;;;;;11.25;51.70;101168.13;5015489;28;46572;-70
2022/04/09 09:55:14;;;;;;;;;13.00;11.00;;;;;11.30;51.35;101166.88;5024115;28;45287;-69
2022/04/09 09:57:41;;;;;;;;;8.67;8.67;;;;;11.33;51.92;101166.59;5018219;28;45513;-69
2022/04/09 10:00:14;;;;;;;;;11.00;9.00;;;;;11.14;51.23;101181.56;5017821;28;45608;-69
2022/04/09 10:02:42;;;;;;;;;9.67;9.67;;;;;10.92;52.13;101168.47;5015507;28;46578;-76
2022/04/09 10:05:10;;;;;;;;;14.67;12.67;;;;;10.95;52.40;101178.84;5014586;28;45507;-70
2022/04/09 10:07:36;;;;;;;;;9.00;9.00;;;;;11.11;52.06;101195.13;5014865;28;45527;-69
2022/04/09 10:10:06;;;;;;;;;11.00;8.00;;;;;11.23;51.62;101202.03;5018135;28;45618;-69
2022/04/09 10:12:38;;;;;;;;;11.00;9.67;;;;;11.11;51.80;101173.84;5018442;28;48380;-70
2022/04/09 10:15:05;;;;;;;;;9.33;8.67;;;;;11.34;51.09;101200.22;5017840;28;45455;-68
2022/04/09 10:17:33;;;;;;;;;13.67;11.67;;;;;11.47;51.19;101211.47;5019759;28;45306;-69
2022/04/09 10:20:02;;;;;;;;;11.00;8.00;;;;;11.11;50.99;101155.22;5019770;28;45460;-69
2022/04/09 10:22:37;;;;;;;;;11.00;10.00;;;;;11.46;51.63;101215.94;5019536;28;45811;-68
2022/04/09 10:25:05;;;;;;;;;10.00;10.00;;;;;11.33;51.70;101175.41;5019326;28;45419;-68
2022/04/09 10:27:38;;;;;;;;;11.67;11.67;;;;;11.61;50.90;101208.38;5019486;28;45267;-71
2022/04/09 10:30:18;;;;;;;;;11.67;10.00;;;;;11.28;50.69;101143.06;5019537;28;45250;-78
2022/04/09 10:32:43;;;;;;;;;11.67;11.00;;;;;11.57;50.64;101220.28;5021038;28;46239;-83
2022/04/09 10:35:25;;;;;;;;;11.00;11.00;;;;;11.55;51.45;101216.91;5015731;28;45455;-67
2022/04/09 10:38:15;;;;;;;;;13.33;13.33;;;;;11.57;51.68;101229.09;5011765;28;45651;-66
2022/04/09 10:40:43;;;;;;;;;10.33;10.00;;;;;11.55;51.17;101228.41;5015367;28;45600;-66
2022/04/09 10:43:42;;;;;;;;;12.67;10.33;;;;;11.45;51.06;101210.75;5018602;28;46210;-66
2022/04/09 10:46:10;;;;;;;;;8.67;8.67;;;;;11.41;50.66;101233.28;5006241;28;45543;-67
2022/04/09 10:48:47;;;;;;;;;12.67;12.67;;;;;11.12;51.54;101214.59;5013067;28;45473;-67
2022/04/09 10:51:16;;;;;;;;;10.33;10.33;;;;;11.31;51.55;101246.59;5017377;28;45498;-66
2022/04/09 10:53:50;;;;;;;;;11.67;10.67;;;;;11.24;52.17;101240.97;5019169;28;46670;-65
2022/04/09 10:56:20;;;;;;;;;13.33;12.00;;;;;11.26;51.97;101246.16;5017724;28;45254;-66
2022/04/09 10:59:44;;;;;;;;;11.00;11.00;;;;;11.24;52.03;101248.13;5017770;28;45325;-67
2022/04/09 11:02:10;;;;;;;;;9.00;9.00;;;;;10.98;52.12;101207.81;5017220;28;45472;-65
2022/04/09 11:04:36;;;;;;;;;8.00;8.00;;;;;11.25;51.64;101255.13;5017912;28;48451;-65
2022/04/09 11:07:09;;;;;;;;;9.00;9.00;;;;;11.18;51.62;101257.47;5017578;28;45552;-66
2022/04/09 11:09:57;;;;;;;;;14.00;14.00;;;;;11.18;52.17;101259.28;5019056;28;45453;-65
2022/04/09 11:12:29;;;;;;;;;9.67;9.00;;;;;11.17;52.27;101258.44;5019055;28;45398;-65
2022/04/09 11:15:00;;;;;;;;;11.33;9.00;;;;;11.10;52.56;101267.13;5017516;28;47558;-65
2022/04/09 11:17:28;;;;;;;;;11.67;9.00;;;;;11.04;52.19;101260.53;5005146;28;45494;-65
2022/04/09 11:19:55;;;;;;;;;11.33;10.00;;;;;11.02;52.38;101251.84;5016435;28;45274;-64
2022/04/09 11:22:54;;;;;;;;;;;;;;;;;;;;;
2022/04/09 11:25:52;;;;;;;;;14.00;11.00;;;;;10.94;52.60;101241.00;5012155;28;75588;-67
2022/04/09 11:28:20;;;;;;;;;9.67;9.67;;;;;10.91;51.41;101241.28;4938190;28;45601;-66
2022/04/09 11:31:02;;;;;;;;;12.33;11.67;;;;;11.01;51.10;101257.25;4965412;28;45481;-66